Time;durP1;ratioP1;P1;durP2;ratioP2;P2;SDS_P1;SDS_P2;PMS_P1;PMS_P2;Temp;Humidity;BMP_temperature;BMP_pressure;BME280_temperature;BME280_humidity;BME280_pressure;Samples;Min_cycle;Max_cycle;Signal;HPM_P1;HPM_P2
2022/01/13 00:00:55;;;;;;;15.93;3.70;;;;;;;-14.24;64.96;100927.41;1789130;77;21583;-49
2022/01/13 00:03:22;;;;;;;17.07;4.23;;;;;;;-14.24;64.97;100929.99;1789096;77;21100;-46
2022/01/13 00:05:48;;;;;;;14.43;4.07;;;;;;;-14.26;64.86;100913.86;1789867;77;21070;-48
2022/01/13 00:08:18;;;;;;;16.53;3.97;;;;;;;-14.27;64.97;100913.35;1799686;77;21118;-46
2022/01/13 00:10:45;;;;;;;16.93;3.13;;;;;;;-14.27;65.11;100912.06;1788101;77;21049;-45
2022/01/13 00:13:20;;;;;;;14.00;3.77;;;;;;;-14.27;65.27;100912.06;1788175;77;21434;-46
2022/01/13 00:15:46;;;;;;;18.93;3.70;;;;;;;-14.26;65.22;100915.15;1787336;77;21105;-47
2022/01/13 00:18:14;;;;;;;16.23;3.30;;;;;;;-14.25;64.99;100919.53;1794002;77;20914;-45
2022/01/13 00:26:01;;;;;;;;;;;;;;;-14.37;63.93;100933.80;1797637;77;20949;-45
2022/01/13 00:28:26;;;;;;;8.17;2.47;;;;;;;-14.44;63.99;100922.97;1793464;77;21059;-48
2022/01/13 00:30:55;;;;;;;20.37;4.00;;;;;;;-14.46;64.43;100914.23;1798585;77;20953;-45
2022/01/13 00:33:24;;;;;;;16.83;4.00;;;;;;;-14.42;64.68;100921.40;1796886;77;20941;-46
2022/01/13 00:35:55;;;;;;;16.77;2.57;;;;;;;-14.41;64.80;100914.14;1794470;77;20863;-48
2022/01/13 00:38:22;;;;;;;9.17;2.77;;;;;;;-14.42;65.06;100919.71;1792528;79;20918;-45
2022/01/13 00:40:49;;;;;;;16.67;3.77;;;;;;;-14.37;65.45;100922.17;1796566;77;21070;-48
2022/01/13 00:43:15;;;;;;;10.07;2.40;;;;;;;-14.30;65.62;100930.88;1797720;77;20976;-46
2022/01/13 00:45:41;;;;;;;10.90;2.57;;;;;;;-14.26;65.64;100920.33;1800214;77;21026;-47
2022/01/13 00:48:08;;;;;;;13.43;2.40;;;;;;;-14.25;65.50;100926.00;1800542;77;21491;-45
2022/01/13 00:50:35;;;;;;;6.23;1.80;;;;;;;-14.25;65.67;100914.36;1795149;77;21041;-48
2022/01/13 00:53:01;;;;;;;9.10;1.87;;;;;;;-14.25;65.91;100908.80;1795937;77;21169;-48
2022/01/13 00:55:44;;;;;;;9.67;2.23;;;;;;;-14.22;66.00;100915.88;1805866;77;21076;-47
2022/01/13 00:57:57;;;;;;;10.67;2.20;;;;;;;-14.17;66.27;100915.77;1808173;77;20965;-47
2022/01/13 01:00:23;;;;;;;11.63;2.27;;;;;;;-14.10;66.52;100917.98;1810995;77;21497;-48
2022/01/13 01:02:49;;;;;;;6.57;1.63;;;;;;;-14.04;66.44;100905.48;1806161;77;21009;-47
2022/01/13 01:05:16;;;;;;;7.73;1.97;;;;;;;-14.02;66.43;100901.27;1804735;77;21798;-46
2022/01/13 01:07:42;;;;;;;9.63;2.57;;;;;;;-13.99;66.51;100900.59;1816917;77;21632;-48
2022/01/13 01:10:09;;;;;;;12.77;3.13;;;;;;;-13.97;66.62;100901.60;1809750;77;21049;-46
2022/01/13 01:12:38;;;;;;;15.13;4.57;;;;;;;-13.97;66.57;100902.89;1810765;77;21088;-47
2022/01/13 01:15:06;;;;;;;14.00;3.50;;;;;;;-13.99;66.51;100902.78;1810224;77;21938;-46
2022/01/13 01:17:35;;;;;;;18.90;3.90;;;;;;;-13.99;66.54;100901.49;1817125;77;21098;-45
2022/01/13 01:20:06;;;;;;;12.00;2.93;;;;;;;-13.96;66.67;100903.00;1815442;77;20969;-46
2022/01/13 01:22:40;;;;;;;9.87;2.83;;;;;;;-13.94;66.64;100909.15;1821969;77;21083;-49
2022/01/13 01:25:18;;;;;;;12.13;2.83;;;;;;;-13.92;66.70;100916.62;1801993;77;21470;-46
2022/01/13 01:27:38;;;;;;;8.67;2.03;;;;;;;-13.88;66.77;100913.47;1801447;77;21138;-45
2022/01/13 01:30:09;;;;;;;14.90;2.53;;;;;;;-13.83;66.76;100914.66;1809145;77;21468;-48
2022/01/13 01:32:32;;;;;;;11.33;2.33;;;;;;;-13.83;66.54;100908.18;1808235;77;21075;-48
2022/01/13 01:35:02;;;;;;;14.47;3.00;;;;;;;-13.85;66.52;100898.12;1798951;77;21499;-48
2022/01/13 01:37:27;;;;;;;12.57;2.63;;;;;;;-13.85;66.52;100916.62;1801135;77;21032;-47
2022/01/13 01:39:55;;;;;;;10.67;2.60;;;;;;;-13.87;66.55;100911.37;1808878;77;21103;-47
2022/01/13 01:42:22;;;;;;;12.47;3.37;;;;;;;-13.87;66.43;100908.80;1802499;77;21103;-46
2022/01/13 01:44:51;;;;;;;13.20;3.10;;;;;;;-13.86;66.53;100904.48;1799878;77;21091;-45
2022/01/13 01:47:18;;;;;;;13.00;3.70;;;;;;;-13.85;66.69;100907.57;1806100;77;22650;-45
2022/01/13 01:49:49;;;;;;;11.90;2.90;;;;;;;-13.78;66.72;100910.19;1803457;77;21675;-46
2022/01/13 01:52:17;;;;;;;20.67;3.67;;;;;;;-13.76;66.72;100898.22;1805096;77;22252;-47
2022/01/13 01:54:44;;;;;;;16.73;3.93;;;;;;;-13.76;66.68;100890.06;1799113;77;21055;-47
2022/01/13 01:57:11;;;;;;;13.30;3.97;;;;;;;-13.76;66.75;100881.00;1787909;77;21267;-47
2022/01/13 01:59:40;;;;;;;14.37;3.47;;;;;;;-13.75;66.76;100885.39;1794714;77;21021;-46
2022/01/13 02:02:06;;;;;;;13.40;2.57;;;;;;;-13.72;66.82;100884.70;1789358;76;21053;-47
2022/01/13 02:04:33;;;;;;;13.53;3.00;;;;;;;-13.70;66.87;100886.60;1790168;77;21032;-47
2022/01/13 02:07:03;;;;;;;7.93;1.97;;;;;;;-13.69;66.79;100882.33;1790534;77;22759;-45
2022/01/13 02:09:28;;;;;;;12.40;2.87;;;;;;;-13.69;66.80;100871.97;1789025;77;21147;-48
2022/01/13 02:11:58;;;;;;;12.33;3.53;;;;;;;-13.71;66.80;100864.09;1784151;77;21098;-47
2022/01/13 02:17:11;;;;;;;12.50;2.93;;;;;;;-13.65;67.06;100859.30;1797394;77;20899;-49
2022/01/13 02:22:09;;;;;;;10.03;2.03;;;;;;;-13.50;67.28;100851.63;1785176;78;23423;-47
2022/01/13 02:24:36;;;;;;;12.93;3.00;;;;;;;-13.52;67.39;100854.11;1770025;78;21104;-46
2022/01/13 02:27:04;;;;;;;12.37;2.00;;;;;;;-13.46;67.37;100858.41;1774346;78;22223;-46
2022/01/13 02:29:31;;;;;;;8.33;2.03;;;;;;;-13.45;67.44;100867.08;1770870;79;21523;-46
2022/01/13 02:31:57;;;;;;;10.13;1.57;;;;;;;-13.44;67.49;100868.44;1771504;79;21021;-47
2022/01/13 02:34:24;;;;;;;6.70;1.33;;;;;;;-13.42;67.52;100860.77;1772983;79;21638;-47
2022/01/13 02:36:53;;;;;;;10.63;1.73;;;;;;;-13.41;67.51;100857.39;1768652;79;21052;-49
2022/01/13 02:39:22;;;;;;;10.67;1.53;;;;;;;-13.42;67.53;100878.91;1773034;78;22839;-48
2022/01/13 02:41:48;;;;;;;9.30;2.60;;;;;;;-13.39;67.56;100872.64;1778426;78;21551;-50
2022/01/13 02:44:18;;;;;;;7.90;2.07;;;;;;;-13.38;67.59;100869.25;1773814;78;21108;-48
2022/01/13 02:49:11;;;;;;;6.93;1.90;;;;;;;-13.39;67.55;100857.49;1771811;78;21346;-46
2022/01/13 02:51:39;;;;;;;8.60;1.97;;;;;;;-13.40;67.56;100861.78;1770620;79;21082;-48
2022/01/13 02:54:07;;;;;;;7.23;1.90;;;;;;;-13.39;67.58;100854.51;1769498;78;22467;-48
2022/01/13 02:56:35;;;;;;;9.70;2.07;;;;;;;-13.37;67.50;100871.05;1764319;79;21381;-47
2022/01/13 02:59:02;;;;;;;10.17;1.50;;;;;;;-13.35;67.46;100853.02;1749742;80;21497;-48
2022/01/13 03:01:28;;;;;;;8.43;2.47;;;;;;;-13.34;67.42;100843.13;1748499;80;20949;-48
2022/01/13 03:03:55;;;;;;;11.30;2.13;;;;;;;-13.37;67.28;100838.67;1751056;80;21325;-48
2022/01/13 03:06:28;;;;;;;7.13;1.63;;;;;;;-13.41;67.22;100834.98;1748255;80;21441;-48
2022/01/13 03:08:51;;;;;;;8.97;2.23;;;;;;;-13.42;67.20;100830.98;1747587;80;20957;-48
2022/01/13 03:11:18;;;;;;;11.47;2.10;;;;;;;-13.40;67.31;100824.22;1751690;80;20981;-47
2022/01/13 03:13:45;;;;;;;11.13;1.60;;;;;;;-13.41;67.23;100825.02;1746273;80;21352;-47
2022/01/13 03:16:13;;;;;;;6.93;1.83;;;;;;;-13.43;67.17;100827.90;1749065;80;21048;-48
2022/01/13 03:18:40;;;;;;;7.97;1.73;;;;;;;-13.43;67.21;100835.67;1749884;80;20900;-48
2022/01/13 03:21:07;;;;;;;6.43;1.53;;;;;;;-13.43;67.14;100836.56;1746815;80;20919;-48
2022/01/13 03:23:34;;;;;;;10.37;1.77;;;;;;;-13.43;67.12;100839.55;1735118;80;20976;-48
2022/01/13 03:26:00;;;;;;;8.67;1.77;;;;;;;-13.43;67.06;100838.26;1734953;80;22121;-48
2022/01/13 03:28:31;;;;;;;7.03;1.03;;;;;;;-13.44;67.09;100835.20;1737935;80;21103;-48
2022/01/13 03:31:02;;;;;;;10.03;1.60;;;;;;;-13.43;67.06;100826.60;1737628;81;20928;-48
2022/01/13 03:33:28;;;;;;;9.23;1.73;;;;;;;-13.43;67.08;100822.72;1736240;80;21517;-48
2022/01/13 03:35:55;;;;;;;7.43;1.30;;;;;;;-13.46;67.02;100822.16;1734560;80;20920;-48
2022/01/13 03:38:21;;;;;;;11.63;2.07;;;;;;;-13.50;67.01;100822.73;1739287;80;20974;-48
2022/01/13 03:40:48;;;;;;;4.10;1.43;;;;;;;-13.49;67.01;100822.34;1733505;81;21138;-48
2022/01/13 03:43:16;;;;;;;2.97;1.03;;;;;;;-13.48;66.98;100818.56;1731411;80;21335;-48
2022/01/13 03:45:42;;;;;;;7.90;1.20;;;;;;;-13.46;66.92;100825.14;1731915;80;21066;-48
2022/01/13 03:48:13;;;;;;;12.37;1.63;;;;;;;-13.47;66.79;100838.88;1703215;82;20966;-48
2022/01/13 03:50:43;;;;;;;12.77;3.03;;;;;;;-13.44;66.76;100819.66;1733693;81;21461;-48
2022/01/13 03:53:33;;;;;;;7.30;1.77;;;;;;;-13.46;66.62;100821.25;1734848;81;21149;-47
2022/01/13 03:56:46;;;;;;;11.23;2.47;;;;;;;-13.48;66.70;100825.43;1730358;80;21013;-47
2022/01/13 03:59:53;;;;;;;8.50;1.93;;;;;;;-13.46;66.66;100821.25;1732241;80;20931;-46
2022/01/13 04:02:19;;;;;;;6.97;2.00;;;;;;;-13.47;66.61;100830.72;1732547;80;20949;-46
2022/01/13 04:04:48;;;;;;;10.47;2.93;;;;;;;-13.47;66.72;100832.01;1700335;82;21073;-46
2022/01/13 04:07:22;;;;;;;10.60;2.37;;;;;;;-13.44;66.71;100831.32;1733643;80;21125;-47
2022/01/13 04:09:57;;;;;;;5.53;1.57;;;;;;;-13.46;66.69;100832.91;1735839;80;21018;-49
2022/01/13 04:12:26;;;;;;;9.37;1.40;;;;;;;-13.46;66.77;100843.27;1735151;80;21121;-49
2022/01/13 04:14:59;;;;;;;11.00;2.20;;;;;;;-13.47;66.81;100843.66;1732823;80;21061;-49
2022/01/13 04:17:24;;;;;;;9.20;2.23;;;;;;;-13.47;66.75;100846.25;1737715;81;21086;-47
2022/01/13 04:19:51;;;;;;;6.33;1.70;;;;;;;-13.49;66.70;100842.66;1732284;80;21867;-47
2022/01/13 04:22:17;;;;;;;7.03;2.30;;;;;;;-13.51;66.62;100848.53;1732125;80;21062;-47
2022/01/13 04:24:46;;;;;;;7.23;2.17;;;;;;;-13.53;66.69;100840.69;1734956;80;21046;-47
2022/01/13 04:27:31;;;;;;;7.50;2.13;;;;;;;-13.54;66.68;100838.00;1704158;82;21059;-47
2022/01/13 04:32:42;;;;;;;7.90;2.17;;;;;;;-13.58;66.69;100829.13;1733793;80;21653;-48
2022/01/13 04:35:09;;;;;;;12.27;2.17;;;;;;;-13.58;66.73;100824.34;1735618;80;21437;-48
2022/01/13 04:37:35;;;;;;;9.43;2.03;;;;;;;-13.59;66.74;100818.27;1738395;80;21063;-46
2022/01/13 04:40:03;;;;;;;8.77;2.73;;;;;;;-13.58;66.79;100816.58;1731830;80;21046;-47
2022/01/13 04:42:35;;;;;;;12.43;2.43;;;;;;;-13.58;66.73;100812.69;1698246;82;21007;-47
2022/01/13 04:44:58;;;;;;;12.33;2.63;;;;;;;-13.60;66.71;100802.23;1734899;80;21321;-46
2022/01/13 04:47:24;;;;;;;12.13;2.57;;;;;;;-13.59;66.70;100801.44;1695434;82;22545;-47
2022/01/13 04:49:51;;;;;;;6.33;1.70;;;;;;;-13.59;66.74;100794.96;1731432;80;22547;-47
2022/01/13 04:52:17;;;;;;;8.97;1.67;;;;;;;-13.59;66.71;100792.77;1730780;80;21543;-48
2022/01/13 04:54:44;;;;;;;8.93;2.17;;;;;;;-13.59;66.70;100786.30;1734576;80;21133;-47
2022/01/13 04:57:17;;;;;;;7.40;2.03;;;;;;;-13.59;66.79;100775.94;1732962;80;21139;-47
2022/01/13 04:59:44;;;;;;;10.97;2.07;;;;;;;-13.57;66.83;100784.31;1727427;81;22494;-47
2022/01/13 05:02:11;;;;;;;11.20;2.23;;;;;;;-13.57;66.85;100772.66;1733716;80;21051;-48
2022/01/13 05:04:37;;;;;;;7.23;2.40;;;;;;;-13.54;66.95;100774.16;1732873;81;21122;-47
2022/01/13 05:07:04;;;;;;;8.73;2.30;;;;;;;-13.48;67.08;100790.47;1730327;80;21081;-47
2022/01/13 05:09:32;;;;;;;5.80;1.97;;;;;;;-13.46;67.05;100782.41;1695301;82;21698;-48
2022/01/13 05:11:59;;;;;;;8.20;3.20;;;;;;;-13.47;67.21;100775.03;1730613;81;21051;-47
2022/01/13 05:14:26;;;;;;;13.30;3.40;;;;;;;-13.48;67.04;100779.72;1730585;80;21035;-47
2022/01/13 05:17:02;;;;;;;13.63;2.83;;;;;;;-13.49;67.10;100772.74;1728480;81;21055;-47
2022/01/13 05:19:46;;;;;;;11.73;3.10;;;;;;;-13.47;67.20;100771.55;1727013;81;21115;-47
2022/01/13 05:24:39;;;;;;;12.23;3.43;;;;;;;-13.49;67.11;100750.73;1737966;80;21258;-46
2022/01/13 05:27:06;;;;;;;13.50;4.43;;;;;;;-13.49;67.15;100736.48;1738276;80;21117;-47
2022/01/13 05:29:33;;;;;;;13.67;4.27;;;;;;;-13.51;67.16;100729.02;1738656;80;21026;-47
2022/01/13 05:31:59;;;;;;;13.03;3.57;;;;;;;-13.48;67.21;100727.92;1740507;80;21030;-47
2022/01/13 05:34:26;;;;;;;9.80;2.57;;;;;;;-13.46;67.13;100742.27;1736112;80;21811;-47
2022/01/13 05:36:52;;;;;;;10.37;3.97;;;;;;;-13.46;67.24;100722.84;1738675;80;21120;-47
2022/01/13 05:39:18;;;;;;;16.93;4.80;;;;;;;-13.46;67.26;100722.44;1743004;80;21108;-46
2022/01/13 05:41:45;;;;;;;15.23;3.33;;;;;;;-13.46;67.31;100728.92;1738320;80;21050;-47
2022/01/13 05:44:11;;;;;;;13.93;4.13;;;;;;;-13.43;67.46;100727.79;1738826;81;21137;-47
2022/01/13 05:46:37;;;;;;;10.97;2.87;;;;;;;-13.41;67.41;100718.43;1736992;80;21192;-47
2022/01/13 05:49:04;;;;;;;16.87;4.87;;;;;;;-13.40;67.38;100718.03;1742238;80;21669;-46
2022/01/13 05:51:32;;;;;;;10.93;3.70;;;;;;;-13.36;67.46;100713.95;1739452;80;22732;-47
2022/01/13 05:53:58;;;;;;;9.13;2.67;;;;;;;-13.34;67.41;100711.02;1738735;80;21061;-48
2022/01/13 05:56:26;;;;;;;10.60;3.40;;;;;;;-13.33;67.36;100716.70;1739438;80;21030;-48
2022/01/13 05:58:52;;;;;;;12.70;3.73;;;;;;;-13.33;67.38;100715.41;1735742;81;22177;-48
2022/01/13 06:01:19;;;;;;;12.17;3.67;;;;;;;-13.33;67.40;100718.89;1741462;80;21180;-48
2022/01/13 06:03:45;;;;;;;11.17;3.27;;;;;;;-13.33;67.47;100723.17;1735970;80;21786;-48
2022/01/13 06:06:11;;;;;;;11.10;3.07;;;;;;;-13.30;67.64;100724.67;1741727;80;21043;-49
2022/01/13 06:08:38;;;;;;;10.07;3.37;;;;;;;-13.26;67.68;100734.41;1740218;80;21318;-48
2022/01/13 06:11:04;;;;;;;12.93;4.00;;;;;;;-13.26;67.70;100732.71;1739262;80;21473;-48
2022/01/13 06:13:31;;;;;;;14.93;3.97;;;;;;;-13.24;67.87;100709.09;1738176;80;21077;-47
2022/01/13 06:15:57;;;;;;;11.20;3.97;;;;;;;-13.20;68.00;100717.56;1745189;80;20938;-48
2022/01/13 06:18:25;;;;;;;10.07;3.03;;;;;;;-13.14;68.08;100723.51;1742955;80;20932;-48
2022/01/13 06:20:51;;;;;;;14.90;5.03;;;;;;;-13.10;68.34;100730.21;1740838;81;20923;-47
2022/01/13 06:23:18;;;;;;;17.63;5.67;;;;;;;-13.03;68.53;100720.73;1738638;80;21381;-48
2022/01/13 06:25:44;;;;;;;15.80;4.83;;;;;;;-12.97;68.62;100721.89;1739297;80;21299;-48
2022/01/13 06:28:11;;;;;;;17.30;4.43;;;;;;;-12.93;68.74;100720.89;1731935;80;20876;-47
2022/01/13 06:30:37;;;;;;;15.97;4.53;;;;;;;-12.89;68.88;100716.77;1732804;81;20947;-48
2022/01/13 06:33:04;;;;;;;14.80;4.97;;;;;;;-12.83;69.13;100711.54;1736139;80;20966;-48
2022/01/13 06:35:31;;;;;;;17.17;4.93;;;;;;;-12.75;69.40;100699.92;1734521;80;21867;-48
2022/01/13 06:37:57;;;;;;;17.17;5.67;;;;;;;-12.60;69.60;100692.56;1735309;81;20866;-48
2022/01/13 06:40:24;;;;;;;15.07;4.80;;;;;;;-12.49;69.62;100701.44;1734640;80;20975;-47
2022/01/13 06:42:52;;;;;;;15.53;5.47;;;;;;;-12.42;69.68;100697.52;1730555;80;21075;-48
2022/01/13 06:45:18;;;;;;;13.53;4.07;;;;;;;-12.35;69.86;100692.77;1731356;81;21039;-48
2022/01/13 06:47:44;;;;;;;15.73;5.57;;;;;;;-12.27;69.97;100688.91;1729292;80;21064;-48
2022/01/13 06:50:13;;;;;;;12.73;4.30;;;;;;;-12.18;70.24;100674.27;1730951;80;21664;-48
2022/01/13 06:52:40;;;;;;;15.70;5.00;;;;;;;-12.08;70.30;100669.19;1730368;80;21034;-48
2022/01/13 06:55:07;;;;;;;16.20;5.47;;;;;;;-12.00;70.42;100652.33;1729464;81;21066;-48
2022/01/13 06:57:34;;;;;;;16.07;5.90;;;;;;;-11.89;70.62;100653.79;1732261;80;21101;-47
2022/01/13 07:00:01;;;;;;;21.57;6.30;;;;;;;-11.80;70.72;100641.72;1729545;80;21524;-48
2022/01/13 07:02:29;;;;;;;14.50;4.23;;;;;;;-11.72;70.94;100636.09;1734849;80;20923;-48
2022/01/13 07:04:55;;;;;;;18.60;6.97;;;;;;;-11.62;71.14;100656.56;1737967;80;21006;-49
2022/01/13 07:07:21;;;;;;;15.43;6.03;;;;;;;-11.51;71.34;100656.73;1735572;80;21093;-48
2022/01/13 07:09:48;;;;;;;21.40;7.53;;;;;;;-11.39;71.49;100643.89;1733270;81;21094;-48
2022/01/13 07:12:15;;;;;;;17.93;6.57;;;;;;;-11.30;71.56;100636.58;1731421;81;21154;-48
2022/01/13 07:14:42;;;;;;;17.50;5.97;;;;;;;-11.21;71.67;100627.95;1730036;81;21054;-48
2022/01/13 07:17:09;;;;;;;11.03;3.97;;;;;;;-11.13;71.78;100623.64;1729603;81;21091;-48
2022/01/13 07:19:36;;;;;;;16.33;6.20;;;;;;;-11.05;71.85;100622.73;1731201;81;21117;-48
2022/01/13 07:22:02;;;;;;;15.40;5.40;;;;;;;-10.96;71.95;100613.20;1731378;81;21117;-48
2022/01/13 07:24:29;;;;;;;16.97;6.00;;;;;;;-10.87;72.12;100600.26;1736288;80;22087;-48
2022/01/13 07:26:55;;;;;;;19.70;7.43;;;;;;;-10.77;72.15;100597.30;1738692;80;22593;-48
2022/01/13 07:29:22;;;;;;;19.77;7.13;;;;;;;-10.66;72.29;100584.84;1735388;80;21957;-48
2022/01/13 07:31:48;;;;;;;24.20;9.20;;;;;;;-10.56;72.44;100579.27;1736601;81;22385;-48
2022/01/13 07:34:15;;;;;;;23.20;8.33;;;;;;;-10.45;72.40;100577.16;1736838;80;21045;-48
2022/01/13 07:36:41;;;;;;;20.00;6.77;;;;;;;-10.36;72.51;100578.91;1740299;80;21076;-48
2022/01/13 07:39:08;;;;;;;20.17;8.43;;;;;;;-10.24;72.51;100571.69;1737014;81;21065;-49
2022/01/13 07:41:37;;;;;;;23.63;7.80;;;;;;;-10.16;72.68;100570.30;1736833;80;21082;-48
2022/01/13 07:44:05;;;;;;;20.00;7.97;;;;;;;-10.06;72.71;100558.20;1736482;81;21144;-48
2022/01/13 07:46:31;;;;;;;21.50;8.00;;;;;;;-9.95;72.72;100565.17;1735070;82;21633;-56
2022/01/13 07:48:58;;;;;;;17.93;7.57;;;;;;;-9.84;72.78;100557.45;1737961;80;21470;-48
2022/01/13 07:51:24;;;;;;;23.67;8.00;;;;;;;-9.74;72.87;100537.92;1735904;81;21101;-48
2022/01/13 07:53:50;;;;;;;20.50;7.40;;;;;;;-9.62;72.94;100529.36;1739579;80;21102;-48
2022/01/13 07:56:16;;;;;;;23.43;7.87;;;;;;;-9.51;72.91;100521.98;1733580;80;21760;-48
2022/01/13 07:58:46;;;;;;;21.73;8.53;;;;;;;-9.44;72.93;100523.62;1735239;81;22317;-47
2022/01/13 08:01:12;;;;;;;21.17;8.17;;;;;;;-9.38;72.95;100512.17;1737204;81;21179;-47
2022/01/13 08:03:39;;;;;;;24.73;10.23;;;;;;;-9.29;73.04;100523.41;1735170;81;21061;-48
2022/01/13 08:06:05;;;;;;;19.40;7.63;;;;;;;-9.22;73.05;100521.13;1734947;81;21721;-48
2022/01/13 08:08:32;;;;;;;21.10;8.37;;;;;;;-9.15;73.11;100518.77;1738102;80;21532;-48
2022/01/13 08:10:59;;;;;;;26.00;10.13;;;;;;;-9.10;73.16;100514.66;1740397;80;21098;-48
2022/01/13 08:13:25;;;;;;;21.07;8.50;;;;;;;-9.05;73.20;100514.00;1735744;80;22830;-48
2022/01/13 08:15:54;;;;;;;19.10;8.07;;;;;;;-8.98;73.38;100513.42;1732742;81;21097;-48
2022/01/13 08:21:06;;;;;;;;;;;;;;;-8.79;73.45;100512.47;1740210;81;21508;-47
2022/01/13 08:23:33;;;;;;;18.60;7.67;;;;;;;-8.70;73.49;100513.25;1730264;81;20183;-47
2022/01/13 08:25:59;;;;;;;24.47;9.40;;;;;;;-8.64;73.54;100530.05;1730156;80;21151;-47
2022/01/13 08:28:28;;;;;;;18.40;7.70;;;;;;;-8.58;73.61;100517.23;1736839;80;21052;-48
2022/01/13 08:30:56;;;;;;;22.83;9.40;;;;;;;-8.50;73.69;100521.03;1736083;81;21448;-48
2022/01/13 08:33:22;;;;;;;21.80;8.27;;;;;;;-8.40;73.85;100519.67;1733782;80;21121;-49
2022/01/13 08:35:50;;;;;;;22.23;9.33;;;;;;;-8.27;73.93;100513.20;1735270;80;21109;-49
2022/01/13 08:38:18;;;;;;;22.07;8.03;;;;;;;-8.17;73.97;100497.94;1729908;80;21198;-49
2022/01/13 08:40:50;;;;;;;17.27;8.03;;;;;;;-8.08;73.90;100486.95;1732811;80;21634;-49
2022/01/13 08:43:17;;;;;;;18.80;8.93;;;;;;;-7.98;73.95;100480.31;1735114;80;20927;-47
2022/01/13 08:45:44;;;;;;;21.13;9.20;;;;;;;-7.89;74.10;100477.63;1735087;80;21023;-48
2022/01/13 08:48:10;;;;;;;18.33;9.20;;;;;;;-7.79;74.06;100477.14;1739034;80;20907;-47
2022/01/13 08:50:37;;;;;;;20.57;8.70;;;;;;;-7.72;74.06;100468.67;1732624;80;21088;-47
2022/01/13 08:53:03;;;;;;;19.50;8.67;;;;;;;-7.61;74.12;100468.17;1737458;80;21042;-47
2022/01/13 08:55:30;;;;;;;20.13;8.10;;;;;;;-7.51;74.15;100468.97;1738292;80;21003;-48
2022/01/13 08:57:56;;;;;;;22.47;8.63;;;;;;;-7.43;74.14;100462.28;1700930;82;20927;-47
2022/01/13 09:00:23;;;;;;;29.07;12.07;;;;;;;-7.36;74.19;100461.23;1739141;81;20931;-47
2022/01/13 09:02:49;;;;;;;23.60;9.43;;;;;;;-7.29;74.19;100463.22;1738003;80;20883;-47
2022/01/13 09:05:17;;;;;;;19.30;9.00;;;;;;;-7.22;74.21;100447.72;1735165;80;21543;-47
2022/01/13 09:07:44;;;;;;;19.53;8.73;;;;;;;-7.17;74.27;100436.59;1734178;80;20950;-48
2022/01/13 09:10:11;;;;;;;21.70;9.47;;;;;;;-7.10;74.33;100428.52;1742139;80;20986;-47
2022/01/13 09:12:38;;;;;;;19.83;10.23;;;;;;;-7.04;74.40;100425.67;1736354;80;20943;-48
2022/01/13 09:15:17;;;;;;;24.17;10.03;;;;;;;-6.96;74.48;100425.50;1739525;80;20946;-47
2022/01/13 09:17:44;;;;;;;19.97;9.60;;;;;;;-6.85;74.51;100413.18;1720010;81;21369;-47
2022/01/13 09:20:11;;;;;;;16.13;6.47;;;;;;;-6.76;74.44;100404.31;1736078;80;21335;-47
2022/01/13 09:22:39;;;;;;;19.13;9.47;;;;;;;-6.71;74.36;100397.47;1734052;81;21535;-47
2022/01/13 09:25:08;;;;;;;24.73;11.37;;;;;;;-6.67;74.35;100404.18;1732322;80;22292;-48
2022/01/13 09:27:35;;;;;;;21.80;10.30;;;;;;;-6.64;74.39;100412.55;1740017;81;21090;-48
2022/01/13 09:30:01;;;;;;;18.70;8.50;;;;;;;-6.59;74.46;100417.50;1696655;82;21058;-48
2022/01/13 09:32:27;;;;;;;21.73;10.53;;;;;;;-6.52;74.49;100416.42;1730128;80;21074;-48
2022/01/13 09:34:54;;;;;;;25.23;10.50;;;;;;;-6.47;74.54;100398.24;1733732;80;21086;-48
2022/01/13 09:37:20;;;;;;;21.83;10.20;;;;;;;-6.42;74.59;100387.89;1731870;81;21097;-47
2022/01/13 09:39:46;;;;;;;19.47;9.13;;;;;;;-6.38;74.64;100369.67;1732675;80;22301;-48
2022/01/13 09:42:13;;;;;;;23.80;11.57;;;;;;;-6.34;74.60;100345.77;1707346;82;21438;-48
2022/01/13 09:44:40;;;;;;;24.57;11.67;;;;;;;-6.29;74.73;100340.23;1731720;81;21375;-48
2022/01/13 09:47:07;;;;;;;21.30;10.70;;;;;;;-6.24;74.73;100328.16;1712407;81;20995;-48
2022/01/13 09:49:33;;;;;;;21.60;10.27;;;;;;;-6.19;74.81;100327.44;1731683;81;21078;-48
2022/01/13 09:51:59;;;;;;;24.03;10.77;;;;;;;-6.15;74.92;100324.49;1735413;80;22703;-48
2022/01/13 09:54:26;;;;;;;19.50;10.37;;;;;;;-6.08;75.00;100308.08;1732703;81;22291;-48
2022/01/13 09:56:53;;;;;;;18.37;9.27;;;;;;;-6.00;75.10;100317.45;1730271;80;22911;-48
2022/01/13 09:59:19;;;;;;;19.53;10.03;;;;;;;-5.91;75.15;100317.28;1732729;81;21069;-48
2022/01/13 10:01:45;;;;;;;23.13;11.30;;;;;;;-5.84;75.20;100319.59;1735921;80;21062;-48
2022/01/13 10:04:12;;;;;;;26.03;12.20;;;;;;;-5.79;75.17;100321.52;1728955;81;21113;-49
2022/01/13 10:06:46;;;;;;;25.83;12.53;;;;;;;-5.78;75.22;100315.81;1730661;80;21498;-48
2022/01/13 10:09:12;;;;;;;24.35;11.20;;;;;;;-5.74;75.30;100309.39;1736786;80;21042;-48
2022/01/13 10:11:48;;;;;;;21.30;11.23;;;;;;;-5.67;75.35;100302.98;1727911;81;21067;-48
2022/01/13 10:16:59;;;;;;;24.30;11.53;;;;;;;-5.53;75.49;100280.17;1733006;81;21758;-48
2022/01/13 10:19:33;;;;;;;20.90;11.23;;;;;;;-5.46;75.46;100272.94;1733978;80;21114;-49
2022/01/13 10:22:12;;;;;;;14.70;7.53;;;;;;;-5.40;75.53;100260.38;1732697;80;21094;-48
2022/01/13 10:24:42;;;;;;;25.37;12.73;;;;;;;-5.36;75.60;100250.44;1736637;81;21086;-48
2022/01/13 10:27:14;;;;;;;20.70;11.57;;;;;;;-5.35;75.60;100241.69;1732264;80;21077;-48
2022/01/13 10:29:56;;;;;;;23.53;11.97;;;;;;;-5.32;75.69;100242.19;1732557;80;22497;-49
2022/01/13 10:32:34;;;;;;;22.27;11.90;;;;;;;-5.27;75.79;100233.56;1736299;80;21019;-48
2022/01/13 10:35:04;;;;;;;23.80;10.83;;;;;;;-5.21;75.87;100233.72;1730864;80;21147;-49
2022/01/13 10:37:35;;;;;;;23.23;10.60;;;;;;;-5.16;75.92;100233.38;1733353;80;21066;-48
2022/01/13 10:40:10;;;;;;;24.47;12.63;;;;;;;-5.10;75.99;100224.75;1733918;80;22072;-49
2022/01/13 10:45:36;;;;;;;22.70;11.83;;;;;;;-4.99;76.18;100218.00;1735927;82;20895;-48
2022/01/13 10:48:17;;;;;;;22.83;10.97;;;;;;;-4.91;76.14;100212.91;1738367;80;20897;-49
2022/01/13 10:50:57;;;;;;;25.30;11.23;;;;;;;-4.85;76.23;100215.25;1737065;80;20880;-48
2022/01/13 10:53:36;;;;;;;21.40;10.10;;;;;;;-4.77;76.30;100209.73;1734972;81;21373;-49
2022/01/13 10:56:07;;;;;;;23.20;11.27;;;;;;;-4.71;76.28;100204.59;1734558;81;21053;-49
2022/01/13 10:58:36;;;;;;;25.63;12.00;;;;;;;-4.65;76.38;100211.27;1732454;81;21117;-49
2022/01/13 11:01:03;;;;;;;23.40;12.43;;;;;;;-4.59;76.39;100211.80;1736671;81;20948;-49
2022/01/13 11:03:31;;;;;;;21.83;11.30;;;;;;;-4.58;76.31;100203.07;1736208;81;21487;-49
2022/01/13 11:06:04;;;;;;;24.90;12.57;;;;;;;-4.54;76.44;100194.41;1732920;81;21022;-49
2022/01/13 11:08:37;;;;;;;23.60;12.57;;;;;;;-4.52;76.46;100190.08;1739735;80;21765;-48
2022/01/13 11:11:03;;;;;;;25.10;12.70;;;;;;;-4.48;76.47;100168.23;1733590;81;21386;-49
2022/01/13 11:13:35;;;;;;;25.40;12.47;;;;;;;-4.44;76.61;100159.57;1735446;80;20900;-49
2022/01/13 11:15:59;;;;;;;26.33;13.63;;;;;;;-4.38;76.64;100166.23;1731507;80;21403;-49
2022/01/13 11:18:31;;;;;;;19.77;9.00;;;;;;;-4.31;76.79;100155.41;1730535;81;21582;-49
2022/01/13 11:20:58;;;;;;;24.07;11.23;;;;;;;-4.27;76.73;100146.30;1736787;81;20912;-49
2022/01/13 11:23:25;;;;;;;25.60;12.90;;;;;;;-4.22;76.75;100131.91;1732558;80;21358;-49
2022/01/13 11:25:55;;;;;;;28.77;13.87;;;;;;;-4.20;76.77;100116.62;1734069;80;22327;-49
2022/01/13 11:28:21;;;;;;;26.70;12.33;;;;;;;-4.14;76.80;100118.89;1740912;80;21125;-48
2022/01/13 11:30:50;;;;;;;29.20;13.50;;;;;;;-4.10;76.82;100111.09;1729498;80;21077;-49
2022/01/13 11:33:18;;;;;;;28.83;14.20;;;;;;;-4.07;76.87;100112.44;1736318;80;21127;-49
2022/01/13 11:35:49;;;;;;;27.37;13.97;;;;;;;-4.03;76.96;100105.06;1735026;80;21473;-49
2022/01/13 11:38:18;;;;;;;28.30;14.47;;;;;;;-3.99;76.94;100093.72;1714119;81;20991;-49
2022/01/13 11:40:49;;;;;;;26.73;12.63;;;;;;;-3.98;77.02;100095.92;1738216;80;21028;-49
2022/01/13 11:43:32;;;;;;;27.30;13.63;;;;;;;-3.96;77.08;100084.57;1703123;82;21006;-49